sensor_id;sensor_type;location;lat;lon;timestamp;pressure;altitude;pressure_sealevel;temperature;humidity
63321;BME280;49449;48.800;9.534;2023-07-16T00:02:20;98391.09;;;22.97;43.60
63321;BME280;49449;48.800;9.534;2023-07-16T00:04:50;98385.56;;;23.02;43.07
63321;BME280;49449;48.800;9.534;2023-07-16T00:07:18;98396.81;;;23.04;43.76
63321;BME280;49449;48.800;9.534;2023-07-16T00:09:48;98398.56;;;23.00;43.86
63321;BME280;49449;48.800;9.534;2023-07-16T00:12:16;98411.69;;;23.02;43.21
63321;BME280;49449;48.800;9.534;2023-07-16T00:14:45;98434.34;;;22.92;43.71
63321;BME280;49449;48.800;9.534;2023-07-16T00:17:12;98430.06;;;22.91;44.04
63321;BME280;49449;48.800;9.534;2023-07-16T00:19:40;98455.25;;;22.86;43.23
63321;BME280;49449;48.800;9.534;2023-07-16T00:22:12;98434.25;;;22.75;43.60
63321;BME280;49449;48.800;9.534;2023-07-16T00:24:40;98435.13;;;22.53;44.25
63321;BME280;49449;48.800;9.534;2023-07-16T00:27:08;98430.03;;;22.51;43.91
63321;BME280;49449;48.800;9.534;2023-07-16T00:29:36;98429.22;;;22.50;44.45
63321;BME280;49449;48.800;9.534;2023-07-16T00:32:04;98419.41;;;22.46;43.35
63321;BME280;49449;48.800;9.534;2023-07-16T00:34:32;98415.00;;;22.50;43.75
63321;BME280;49449;48.800;9.534;2023-07-16T00:37:00;98419.72;;;22.44;43.96
63321;BME280;49449;48.800;9.534;2023-07-16T00:39:31;98428.66;;;22.31;43.81
63321;BME280;49449;48.800;9.534;2023-07-16T00:41:58;98424.56;;;22.34;43.88
63321;BME280;49449;48.800;9.534;2023-07-16T00:44:26;98430.09;;;22.28;43.92
63321;BME280;49449;48.800;9.534;2023-07-16T00:46:54;98439.38;;;22.22;44.29
63321;BME280;49449;48.800;9.534;2023-07-16T00:49:23;98437.31;;;22.19;44.53
63321;BME280;49449;48.800;9.534;2023-07-16T00:51:51;98440.06;;;22.28;44.18
63321;BME280;49449;48.800;9.534;2023-07-16T00:54:20;98439.25;;;22.27;44.11
63321;BME280;49449;48.800;9.534;2023-07-16T00:56:50;98441.09;;;22.18;44.27
63321;BME280;49449;48.800;9.534;2023-07-16T00:59:17;98423.75;;;22.24;43.71
63321;BME280;49449;48.800;9.534;2023-07-16T01:01:45;98423.75;;;22.24;43.68
63321;BME280;49449;48.800;9.534;2023-07-16T01:04:13;98440.50;;;22.21;44.13
63321;BME280;49449;48.800;9.534;2023-07-16T01:06:45;98440.50;;;22.21;43.53
63321;BME280;49449;48.800;9.534;2023-07-16T01:09:16;98452.81;;;22.22;44.13
63321;BME280;49449;48.800;9.534;2023-07-16T01:11:46;98441.69;;;22.15;44.27
63321;BME280;49449;48.800;9.534;2023-07-16T01:14:17;98438.81;;;22.11;44.90
63321;BME280;49449;48.800;9.534;2023-07-16T01:16:45;98429.59;;;22.04;44.22
63321;BME280;49449;48.800;9.534;2023-07-16T01:19:13;98425.47;;;22.06;44.43
63321;BME280;49449;48.800;9.534;2023-07-16T01:21:47;98457.09;;;22.01;44.65
63321;BME280;49449;48.800;9.534;2023-07-16T01:24:42;98460.31;;;21.89;44.96
63321;BME280;49449;48.800;9.534;2023-07-16T01:27:26;98445.47;;;21.91;44.83
63321;BME280;49449;48.800;9.534;2023-07-16T01:30:01;98444.56;;;21.96;44.71
63321;BME280;49449;48.800;9.534;2023-07-16T01:32:30;98452.25;;;21.89;44.63
63321;BME280;49449;48.800;9.534;2023-07-16T01:34:59;98453.78;;;21.81;44.83
63321;BME280;49449;48.800;9.534;2023-07-16T01:37:27;98450.91;;;21.78;44.68
63321;BME280;49449;48.800;9.534;2023-07-16T01:39:55;98453.78;;;21.81;45.24
63321;BME280;49449;48.800;9.534;2023-07-16T01:42:23;98456.47;;;21.81;44.80
63321;BME280;49449;48.800;9.534;2023-07-16T01:44:51;98441.13;;;21.82;44.55
63321;BME280;49449;48.800;9.534;2023-07-16T01:47:24;98459.63;;;21.83;44.30
63321;BME280;49449;48.800;9.534;2023-07-16T01:50:00;98474.81;;;21.79;44.77
63321;BME280;49449;48.800;9.534;2023-07-16T01:52:27;98474.44;;;21.72;44.47
63321;BME280;49449;48.800;9.534;2023-07-16T01:54:55;98479.81;;;21.72;44.58
63321;BME280;49449;48.800;9.534;2023-07-16T01:57:23;98471.13;;;21.75;44.62
63321;BME280;49449;48.800;9.534;2023-07-16T01:59:51;98455.50;;;21.77;44.39
63321;BME280;49449;48.800;9.534;2023-07-16T02:02:18;98461.06;;;21.81;44.33
63321;BME280;49449;48.800;9.534;2023-07-16T02:04:48;98459.16;;;21.81;44.35
63321;BME280;49449;48.800;9.534;2023-07-16T02:07:15;98450.00;;;21.82;44.33
63321;BME280;49449;48.800;9.534;2023-07-16T02:09:43;98449.00;;;21.78;44.51
63321;BME280;49449;48.800;9.534;2023-07-16T02:12:11;98453.53;;;21.69;44.33
63321;BME280;49449;48.800;9.534;2023-07-16T02:14:39;98440.19;;;21.64;44.37
63321;BME280;49449;48.800;9.534;2023-07-16T02:17:06;98448.78;;;21.52;45.08
63321;BME280;49449;48.800;9.534;2023-07-16T02:19:34;98457.06;;;21.42;45.32
63321;BME280;49449;48.800;9.534;2023-07-16T02:22:04;98452.16;;;21.44;45.23
63321;BME280;49449;48.800;9.534;2023-07-16T02:24:31;98464.19;;;21.46;45.16
63321;BME280;49449;48.800;9.534;2023-07-16T02:26:59;98444.41;;;21.56;45.18
63321;BME280;49449;48.800;9.534;2023-07-16T02:29:31;98448.25;;;21.64;45.52
63321;BME280;49449;48.800;9.534;2023-07-16T02:31:59;98443.56;;;21.69;45.00
63321;BME280;49449;48.800;9.534;2023-07-16T02:34:26;98471.63;;;21.77;45.32
63321;BME280;49449;48.800;9.534;2023-07-16T02:36:54;98471.31;;;21.79;44.99
63321;BME280;49449;48.800;9.534;2023-07-16T02:39:23;98469.63;;;21.83;44.48
63321;BME280;49449;48.800;9.534;2023-07-16T02:41:53;98483.72;;;21.88;44.69
63321;BME280;49449;48.800;9.534;2023-07-16T02:44:23;98457.63;;;21.89;44.60
63321;BME280;49449;48.800;9.534;2023-07-16T02:46:52;98460.31;;;21.89;44.60
63321;BME280;49449;48.800;9.534;2023-07-16T02:49:20;98490.56;;;21.72;45.30
63321;BME280;49449;48.800;9.534;2023-07-16T02:51:48;98490.09;;;21.56;45.27
63321;BME280;49449;48.800;9.534;2023-07-16T02:54:18;98507.38;;;21.50;45.77
63321;BME280;49449;48.800;9.534;2023-07-16T02:56:48;98499.66;;;21.21;45.67
63321;BME280;49449;48.800;9.534;2023-07-16T02:59:16;98484.91;;;21.32;45.03
63321;BME280;49449;48.800;9.534;2023-07-16T03:01:43;98488.00;;;21.39;44.88
63321;BME280;49449;48.800;9.534;2023-07-16T03:04:11;98498.66;;;21.30;44.95
63321;BME280;49449;48.800;9.534;2023-07-16T03:06:39;98505.81;;;21.21;44.87
63321;BME280;49449;48.800;9.534;2023-07-16T03:09:07;98514.28;;;21.14;44.63
63321;BME280;49449;48.800;9.534;2023-07-16T03:11:35;98506.63;;;20.94;44.91
63321;BME280;49449;48.800;9.534;2023-07-16T03:14:04;98503.13;;;20.93;44.55
63321;BME280;49449;48.800;9.534;2023-07-16T03:16:33;98518.34;;;20.98;43.49
63321;BME280;49449;48.800;9.534;2023-07-16T03:19:00;98523.31;;;20.91;43.90
63321;BME280;49449;48.800;9.534;2023-07-16T03:21:29;98528.63;;;20.77;43.63
63321;BME280;49449;48.800;9.534;2023-07-16T03:23:57;98524.53;;;20.79;44.03
63321;BME280;49449;48.800;9.534;2023-07-16T03:26:25;98512.63;;;20.86;43.48
63321;BME280;49449;48.800;9.534;2023-07-16T03:28:52;98529.19;;;20.93;43.44
63321;BME280;49449;48.800;9.534;2023-07-16T03:31:23;98561.47;;;20.88;42.97
63321;BME280;49449;48.800;9.534;2023-07-16T03:33:51;98578.44;;;20.69;43.31
63321;BME280;49449;48.800;9.534;2023-07-16T03:36:18;98577.91;;;20.67;43.52
63321;BME280;49449;48.800;9.534;2023-07-16T03:38:47;98586.69;;;20.73;43.44
63321;BME280;49449;48.800;9.534;2023-07-16T03:41:14;98582.31;;;20.77;43.24
63321;BME280;49449;48.800;9.534;2023-07-16T03:43:42;98581.44;;;20.82;43.12
63321;BME280;49449;48.800;9.534;2023-07-16T03:46:10;98561.56;;;20.83;43.47
63321;BME280;49449;48.800;9.534;2023-07-16T03:48:39;98560.97;;;20.86;43.21
63321;BME280;49449;48.800;9.534;2023-07-16T03:51:07;98559.34;;;20.85;43.59
63321;BME280;49449;48.800;9.534;2023-07-16T03:53:35;98565.53;;;20.85;43.29
63321;BME280;49449;48.800;9.534;2023-07-16T03:56:03;98578.16;;;20.85;42.20
63321;BME280;49449;48.800;9.534;2023-07-16T03:58:30;98592.09;;;20.87;42.12
63321;BME280;49449;48.800;9.534;2023-07-16T04:00:58;98596.94;;;20.71;42.52
63321;BME280;49449;48.800;9.534;2023-07-16T04:03:26;98603.47;;;20.65;42.70
63321;BME280;49449;48.800;9.534;2023-07-16T04:06:02;98619.28;;;20.66;42.85
63321;BME280;49449;48.800;9.534;2023-07-16T04:08:30;98619.28;;;20.66;42.86
63321;BME280;49449;48.800;9.534;2023-07-16T04:10:58;98612.22;;;20.70;42.73
63321;BME280;49449;48.800;9.534;2023-07-16T04:13:26;98620.78;;;20.72;42.73
63321;BME280;49449;48.800;9.534;2023-07-16T04:15:54;98619.13;;;20.76;42.57
63321;BME280;49449;48.800;9.534;2023-07-16T04:18:23;98633.53;;;20.80;42.65
63321;BME280;49449;48.800;9.534;2023-07-16T04:20:51;98631.63;;;20.81;42.62
63321;BME280;49449;48.800;9.534;2023-07-16T04:23:21;98627.31;;;20.85;42.47
63321;BME280;49449;48.800;9.534;2023-07-16T04:25:51;98628.59;;;20.88;42.26
63321;BME280;49449;48.800;9.534;2023-07-16T04:28:21;98632.59;;;20.90;42.33
63321;BME280;49449;48.800;9.534;2023-07-16T04:30:49;98622.59;;;20.96;42.34
63321;BME280;49449;48.800;9.534;2023-07-16T04:33:17;98613.34;;;21.02;42.32
63321;BME280;49449;48.800;9.534;2023-07-16T04:35:46;98606.72;;;21.13;41.71
63321;BME280;49449;48.800;9.534;2023-07-16T04:38:14;98625.09;;;21.20;41.21
63321;BME280;49449;48.800;9.534;2023-07-16T04:40:43;98629.19;;;21.17;40.79
63321;BME280;49449;48.800;9.534;2023-07-16T04:43:10;98629.19;;;21.17;40.88
63321;BME280;49449;48.800;9.534;2023-07-16T04:45:38;98636.88;;;21.24;40.37
63321;BME280;49449;48.800;9.534;2023-07-16T04:48:06;98654.97;;;21.18;40.73
63321;BME280;49449;48.800;9.534;2023-07-16T04:50:35;98632.88;;;21.22;40.43
63321;BME280;49449;48.800;9.534;2023-07-16T04:53:03;98632.88;;;21.22;40.19
63321;BME280;49449;48.800;9.534;2023-07-16T04:55:35;98643.81;;;21.25;40.26
63321;BME280;49449;48.800;9.534;2023-07-16T04:58:04;98644.22;;;21.32;40.27
63321;BME280;49449;48.800;9.534;2023-07-16T05:00:32;98638.84;;;21.32;40.34
63321;BME280;49449;48.800;9.534;2023-07-16T05:03:00;98633.59;;;21.41;39.63
63321;BME280;49449;48.800;9.534;2023-07-16T05:05:28;98640.19;;;21.49;39.29
63321;BME280;49449;48.800;9.534;2023-07-16T05:07:58;98654.84;;;21.57;39.71
63321;BME280;49449;48.800;9.534;2023-07-16T05:10:26;98644.88;;;21.57;40.15
63321;BME280;49449;48.800;9.534;2023-07-16T05:12:54;98641.09;;;21.58;40.29
63321;BME280;49449;48.800;9.534;2023-07-16T05:15:23;98653.56;;;21.68;39.81
63321;BME280;49449;48.800;9.534;2023-07-16T05:17:51;98665.31;;;21.72;39.87
63321;BME280;49449;48.800;9.534;2023-07-16T05:20:19;98661.84;;;21.71;39.87
63321;BME280;49449;48.800;9.534;2023-07-16T05:22:47;98672.16;;;21.64;39.61
63321;BME280;49449;48.800;9.534;2023-07-16T05:25:15;98665.31;;;21.72;39.69
63321;BME280;49449;48.800;9.534;2023-07-16T05:27:43;98674.34;;;21.76;40.11
63321;BME280;49449;48.800;9.534;2023-07-16T05:30:11;98677.25;;;21.80;39.53
63321;BME280;49449;48.800;9.534;2023-07-16T05:32:40;98686.09;;;21.94;39.67
63321;BME280;49449;48.800;9.534;2023-07-16T05:35:08;98684.44;;;21.98;39.12
63321;BME280;49449;48.800;9.534;2023-07-16T05:37:36;98671.78;;;21.85;39.41
63321;BME280;49449;48.800;9.534;2023-07-16T05:40:05;98668.09;;;21.81;39.40
63321;BME280;49449;48.800;9.534;2023-07-16T05:42:35;98669.09;;;21.85;39.04
63321;BME280;49449;48.800;9.534;2023-07-16T05:45:03;98670.00;;;21.80;39.53
63321;BME280;49449;48.800;9.534;2023-07-16T05:47:34;98685.22;;;21.85;39.68
63321;BME280;49449;48.800;9.534;2023-07-16T05:50:04;98683.53;;;21.75;38.71
63321;BME280;49449;48.800;9.534;2023-07-16T05:52:31;98679.25;;;21.74;39.26
63321;BME280;49449;48.800;9.534;2023-07-16T05:54:59;98682.63;;;21.66;39.63
63321;BME280;49449;48.800;9.534;2023-07-16T05:57:27;98689.78;;;21.70;39.25
63321;BME280;49449;48.800;9.534;2023-07-16T06:00:00;98704.63;;;21.82;40.00
63321;BME280;49449;48.800;9.534;2023-07-16T06:02:28;98694.06;;;21.85;39.09
63321;BME280;49449;48.800;9.534;2023-07-16T06:04:56;98683.75;;;21.92;38.87
63321;BME280;49449;48.800;9.534;2023-07-16T06:07:25;98691.19;;;21.96;38.69
63321;BME280;49449;48.800;9.534;2023-07-16T06:09:53;98692.28;;;21.95;38.86
63321;BME280;49449;48.800;9.534;2023-07-16T06:12:21;98689.59;;;21.95;38.54
63321;BME280;49449;48.800;9.534;2023-07-16T06:14:49;98683.31;;;21.99;38.78
63321;BME280;49449;48.800;9.534;2023-07-16T06:17:17;98693.56;;;22.11;38.89
63321;BME280;49449;48.800;9.534;2023-07-16T06:19:45;98701.97;;;22.23;38.78
63321;BME280;49449;48.800;9.534;2023-07-16T06:22:14;98690.56;;;22.40;38.91
63321;BME280;49449;48.800;9.534;2023-07-16T06:24:44;98696.16;;;22.44;37.90
63321;BME280;49449;48.800;9.534;2023-07-16T06:27:11;98708.69;;;22.48;37.87
63321;BME280;49449;48.800;9.534;2023-07-16T06:29:39;98706.19;;;22.52;37.76
63321;BME280;49449;48.800;9.534;2023-07-16T06:32:09;98715.78;;;22.44;37.73
63321;BME280;49449;48.800;9.534;2023-07-16T06:34:37;98709.72;;;22.39;37.80
63321;BME280;49449;48.800;9.534;2023-07-16T06:37:05;98718.56;;;22.39;37.83
63321;BME280;49449;48.800;9.534;2023-07-16T06:39:33;98703.31;;;22.35;37.85
63321;BME280;49449;48.800;9.534;2023-07-16T06:42:03;98697.13;;;22.48;37.60
63321;BME280;49449;48.800;9.534;2023-07-16T06:44:52;98686.03;;;22.63;37.50
63321;BME280;49449;48.800;9.534;2023-07-16T06:47:20;98688.41;;;22.65;37.53
63321;BME280;49449;48.800;9.534;2023-07-16T06:49:47;98674.94;;;22.65;37.38
63321;BME280;49449;48.800;9.534;2023-07-16T06:52:19;98672.03;;;22.61;37.72
63321;BME280;49449;48.800;9.534;2023-07-16T06:54:47;98679.41;;;22.69;37.47
63321;BME280;49449;48.800;9.534;2023-07-16T06:57:16;98678.22;;;22.76;37.76
63321;BME280;49449;48.800;9.534;2023-07-16T06:59:44;98673.13;;;22.74;37.49
63321;BME280;49449;48.800;9.534;2023-07-16T07:02:12;98666.63;;;22.75;36.67
63321;BME280;49449;48.800;9.534;2023-07-16T07:04:39;98672.44;;;22.68;37.33
63321;BME280;49449;48.800;9.534;2023-07-16T07:07:07;98670.53;;;22.69;37.10
63321;BME280;49449;48.800;9.534;2023-07-16T07:09:35;98687.47;;;22.69;37.29
63321;BME280;49449;48.800;9.534;2023-07-16T07:12:03;98707.03;;;22.75;37.13
63321;BME280;49449;48.800;9.534;2023-07-16T07:14:33;98707.94;;;22.71;37.21
63321;BME280;49449;48.800;9.534;2023-07-16T07:17:02;98708.63;;;22.76;36.55
63321;BME280;49449;48.800;9.534;2023-07-16T07:19:30;98712.00;;;22.82;36.78
63321;BME280;49449;48.800;9.534;2023-07-16T07:21:58;98698.25;;;22.83;36.58
63321;BME280;49449;48.800;9.534;2023-07-16T07:24:26;98709.06;;;22.92;36.13
63321;BME280;49449;48.800;9.534;2023-07-16T07:26:54;98696.16;;;23.03;35.83
63321;BME280;49449;48.800;9.534;2023-07-16T07:29:22;98685.50;;;23.20;35.48
63321;BME280;49449;48.800;9.534;2023-07-16T07:31:52;98685.91;;;23.36;35.24
63321;BME280;49449;48.800;9.534;2023-07-16T07:34:20;98687.38;;;23.42;34.13
63321;BME280;49449;48.800;9.534;2023-07-16T07:36:48;98689.63;;;23.27;34.55
63321;BME280;49449;48.800;9.534;2023-07-16T07:39:16;98679.03;;;23.30;34.40
63321;BME280;49449;48.800;9.534;2023-07-16T07:41:44;98677.09;;;23.45;34.21
63321;BME280;49449;48.800;9.534;2023-07-16T07:44:11;98691.09;;;23.55;33.69
63321;BME280;49449;48.800;9.534;2023-07-16T07:46:39;98688.41;;;23.55;32.83
63321;BME280;49449;48.800;9.534;2023-07-16T07:49:08;98698.75;;;23.62;32.97
63321;BME280;49449;48.800;9.534;2023-07-16T07:51:36;98702.41;;;23.66;33.25
63321;BME280;49449;48.800;9.534;2023-07-16T07:54:04;98712.22;;;23.71;32.89
63321;BME280;49449;48.800;9.534;2023-07-16T07:56:34;98705.78;;;23.80;32.79
63321;BME280;49449;48.800;9.534;2023-07-16T07:59:02;98705.00;;;23.80;32.77
63321;BME280;49449;48.800;9.534;2023-07-16T08:01:30;98713.84;;;23.72;32.76
63321;BME280;49449;48.800;9.534;2023-07-16T08:03:58;98718.13;;;23.73;32.10
63321;BME280;49449;48.800;9.534;2023-07-16T08:06:27;98724.94;;;23.70;32.49
63321;BME280;49449;48.800;9.534;2023-07-16T08:08:57;98707.66;;;23.71;32.08
63321;BME280;49449;48.800;9.534;2023-07-16T08:11:25;98704.47;;;23.69;32.08
63321;BME280;49449;48.800;9.534;2023-07-16T08:13:53;98712.06;;;23.67;31.68
63321;BME280;49449;48.800;9.534;2023-07-16T08:16:22;98714.75;;;23.67;31.94
63321;BME280;49449;48.800;9.534;2023-07-16T08:18:49;98706.19;;;23.65;31.22
63321;BME280;49449;48.800;9.534;2023-07-16T08:21:17;98715.19;;;23.52;31.76
63321;BME280;49449;48.800;9.534;2023-07-16T08:23:48;98712.00;;;23.50;31.85
63321;BME280;49449;48.800;9.534;2023-07-16T08:26:17;98713.34;;;23.38;32.15
63321;BME280;49449;48.800;9.534;2023-07-16T08:28:44;98715.56;;;23.36;31.51
63321;BME280;49449;48.800;9.534;2023-07-16T08:31:13;98723.09;;;23.48;31.58
63321;BME280;49449;48.800;9.534;2023-07-16T08:33:41;98719.16;;;23.54;32.04
63321;BME280;49449;48.800;9.534;2023-07-16T08:36:10;98710.44;;;23.57;31.40
63321;BME280;49449;48.800;9.534;2023-07-16T08:38:41;98702.41;;;23.66;31.91
63321;BME280;49449;48.800;9.534;2023-07-16T08:41:10;98704.81;;;23.76;31.91
63321;BME280;49449;48.800;9.534;2023-07-16T08:43:39;98701.09;;;23.63;30.73
63321;BME280;49449;48.800;9.534;2023-07-16T08:46:08;98697.28;;;23.33;31.83
63321;BME280;49449;48.800;9.534;2023-07-16T08:48:36;98685.78;;;23.19;31.26
63321;BME280;49449;48.800;9.534;2023-07-16T08:51:04;98684.22;;;23.18;31.24
63321;BME280;49449;48.800;9.534;2023-07-16T08:53:33;98690.44;;;23.27;30.89
63321;BME280;49449;48.800;9.534;2023-07-16T08:56:03;98695.28;;;23.39;31.26
63321;BME280;49449;48.800;9.534;2023-07-16T08:58:33;98709.22;;;23.72;31.24
63321;BME280;49449;48.800;9.534;2023-07-16T09:01:02;98708.25;;;23.99;30.51
63321;BME280;49449;48.800;9.534;2023-07-16T09:03:30;98710.81;;;24.05;30.23
63321;BME280;49449;48.800;9.534;2023-07-16T09:05:58;98712.22;;;24.02;30.73
63321;BME280;49449;48.800;9.534;2023-07-16T09:08:25;98706.22;;;24.14;30.53
63321;BME280;49449;48.800;9.534;2023-07-16T09:10:55;98713.84;;;23.72;31.09
63321;BME280;49449;48.800;9.534;2023-07-16T09:13:24;98709.38;;;24.07;30.42
63321;BME280;49449;48.800;9.534;2023-07-16T09:15:56;98715.28;;;24.27;29.97
63321;BME280;49449;48.800;9.534;2023-07-16T09:18:25;98710.41;;;24.46;29.74
63321;BME280;49449;48.800;9.534;2023-07-16T09:20:57;98707.38;;;24.39;30.08
63321;BME280;49449;48.800;9.534;2023-07-16T09:23:25;98713.56;;;24.48;30.04
63321;BME280;49449;48.800;9.534;2023-07-16T09:25:55;98717.91;;;24.49;29.87
63321;BME280;49449;48.800;9.534;2023-07-16T09:28:23;98722.22;;;24.50;29.28
63321;BME280;49449;48.800;9.534;2023-07-16T09:30:52;98724.22;;;24.45;29.52
63321;BME280;49449;48.800;9.534;2023-07-16T09:33:22;98716.16;;;24.71;29.96
63321;BME280;49449;48.800;9.534;2023-07-16T09:35:52;98707.56;;;24.95;29.72
63321;BME280;49449;48.800;9.534;2023-07-16T09:38:29;98697.06;;;25.20;28.83
63321;BME280;49449;48.800;9.534;2023-07-16T09:40:57;98699.41;;;25.39;28.61
63321;BME280;49449;48.800;9.534;2023-07-16T09:43:28;98694.59;;;25.53;28.93
63321;BME280;49449;48.800;9.534;2023-07-16T09:45:55;98698.22;;;25.57;28.83
63321;BME280;49449;48.800;9.534;2023-07-16T09:48:23;98693.59;;;25.66;28.10
63321;BME280;49449;48.800;9.534;2023-07-16T09:50:52;98690.28;;;25.52;27.27
63321;BME280;49449;48.800;9.534;2023-07-16T09:53:21;98692.25;;;25.43;27.75
63321;BME280;49449;48.800;9.534;2023-07-16T09:55:52;98700.31;;;25.60;28.07
63321;BME280;49449;48.800;9.534;2023-07-16T09:58:21;98704.41;;;25.58;27.84
63321;BME280;49449;48.800;9.534;2023-07-16T10:00:50;98701.44;;;25.59;27.81
63321;BME280;49449;48.800;9.534;2023-07-16T10:03:18;98706.00;;;25.67;27.86
63321;BME280;49449;48.800;9.534;2023-07-16T10:05:46;98706.06;;;25.50;28.15
63321;BME280;49449;48.800;9.534;2023-07-16T10:08:19;98696.19;;;25.45;28.02
63321;BME280;49449;48.800;9.534;2023-07-16T10:10:48;98685.34;;;25.54;27.62
63321;BME280;49449;48.800;9.534;2023-07-16T10:13:22;98693.13;;;25.64;27.44
63321;BME280;49449;48.800;9.534;2023-07-16T10:15:51;98691.50;;;25.81;27.15
63321;BME280;49449;48.800;9.534;2023-07-16T10:18:24;98694.56;;;26.00;26.50
63321;BME280;49449;48.800;9.534;2023-07-16T10:20:54;98687.63;;;26.12;26.29
63321;BME280;49449;48.800;9.534;2023-07-16T10:23:36;98686.59;;;26.04;25.97
63321;BME280;49449;48.800;9.534;2023-07-16T10:26:08;98688.69;;;25.68;27.13
63321;BME280;49449;48.800;9.534;2023-07-16T10:28:38;98684.44;;;25.41;26.41
63321;BME280;49449;48.800;9.534;2023-07-16T10:31:06;98680.69;;;25.25;26.82
63321;BME280;49449;48.800;9.534;2023-07-16T10:33:56;98676.94;;;25.47;26.87
63321;BME280;49449;48.800;9.534;2023-07-16T10:36:23;98680.25;;;25.61;25.85
63321;BME280;49449;48.800;9.534;2023-07-16T10:38:51;98682.13;;;25.69;26.40
63321;BME280;49449;48.800;9.534;2023-07-16T10:41:20;98685.69;;;25.91;26.83
63321;BME280;49449;48.800;9.534;2023-07-16T10:43:50;98687.22;;;25.71;27.19
63321;BME280;49449;48.800;9.534;2023-07-16T10:46:20;98668.47;;;25.96;26.44
63321;BME280;49449;48.800;9.534;2023-07-16T10:48:48;98679.31;;;25.96;26.42
63321;BME280;49449;48.800;9.534;2023-07-16T10:51:16;98677.00;;;26.06;26.58
63321;BME280;49449;48.800;9.534;2023-07-16T10:53:44;98666.38;;;26.01;26.42
63321;BME280;49449;48.800;9.534;2023-07-16T10:56:11;98676.09;;;26.02;26.34
63321;BME280;49449;48.800;9.534;2023-07-16T10:58:39;98667.19;;;26.23;26.42
63321;BME280;49449;48.800;9.534;2023-07-16T11:01:09;98661.84;;;26.14;24.84
63321;BME280;49449;48.800;9.534;2023-07-16T11:03:37;98660.28;;;26.13;25.72
63321;BME280;49449;48.800;9.534;2023-07-16T11:06:08;98658.63;;;26.21;25.46
63321;BME280;49449;48.800;9.534;2023-07-16T11:08:38;98661.41;;;26.33;25.66
63321;BME280;49449;48.800;9.534;2023-07-16T11:11:06;98660.22;;;26.43;25.73
63321;BME280;49449;48.800;9.534;2023-07-16T11:13:34;98664.44;;;26.32;25.61
63321;BME280;49449;48.800;9.534;2023-07-16T11:16:07;98662.06;;;26.51;25.38
63321;BME280;49449;48.800;9.534;2023-07-16T11:18:36;98657.56;;;26.55;25.67
63321;BME280;49449;48.800;9.534;2023-07-16T11:21:04;98664.75;;;26.51;25.47
63321;BME280;49449;48.800;9.534;2023-07-16T11:23:33;98665.00;;;26.58;25.39
63321;BME280;49449;48.800;9.534;2023-07-16T11:26:02;98665.78;;;26.47;25.09
63321;BME280;49449;48.800;9.534;2023-07-16T11:28:36;98660.41;;;26.38;24.65
63321;BME280;49449;48.800;9.534;2023-07-16T11:31:10;98669.53;;;26.54;24.97
63321;BME280;49449;48.800;9.534;2023-07-16T11:33:41;98663.06;;;26.47;23.57
63321;BME280;49449;48.800;9.534;2023-07-16T11:36:09;98667.50;;;26.00;23.97
63321;BME280;49449;48.800;9.534;2023-07-16T11:38:38;98663.47;;;25.77;24.83
63321;BME280;49449;48.800;9.534;2023-07-16T11:41:06;98662.34;;;25.39;25.36
63321;BME280;49449;48.800;9.534;2023-07-16T11:43:34;98654.94;;;25.57;25.36
63321;BME280;49449;48.800;9.534;2023-07-16T11:46:05;98659.34;;;25.79;25.50
63321;BME280;49449;48.800;9.534;2023-07-16T11:48:32;98655.44;;;25.89;24.79
63321;BME280;49449;48.800;9.534;2023-07-16T11:51:02;98652.88;;;25.63;25.33
63321;BME280;49449;48.800;9.534;2023-07-16T11:53:29;98650.28;;;25.75;25.10
63321;BME280;49449;48.800;9.534;2023-07-16T11:55:57;98644.53;;;25.77;24.59
63321;BME280;49449;48.800;9.534;2023-07-16T11:58:25;98645.81;;;25.41;25.19
63321;BME280;49449;48.800;9.534;2023-07-16T12:00:53;98645.03;;;25.70;24.77
63321;BME280;49449;48.800;9.534;2023-07-16T12:03:20;98639.31;;;25.72;24.97
63321;BME280;49449;48.800;9.534;2023-07-16T12:05:48;98636.38;;;25.85;24.56
63321;BME280;49449;48.800;9.534;2023-07-16T12:08:20;98640.00;;;25.90;24.95
63321;BME280;49449;48.800;9.534;2023-07-16T12:10:47;98637.06;;;25.74;24.11
63321;BME280;49449;48.800;9.534;2023-07-16T12:13:15;98632.84;;;25.64;24.41
63321;BME280;49449;48.800;9.534;2023-07-16T12:15:43;98629.28;;;25.34;24.60
63321;BME280;49449;48.800;9.534;2023-07-16T12:18:11;98628.63;;;25.37;25.41
63321;BME280;49449;48.800;9.534;2023-07-16T12:20:39;98623.00;;;25.59;25.06
63321;BME280;49449;48.800;9.534;2023-07-16T12:23:07;98621.47;;;25.79;25.28
63321;BME280;49449;48.800;9.534;2023-07-16T12:25:36;98620.59;;;25.87;23.95
63321;BME280;49449;48.800;9.534;2023-07-16T12:28:05;98621.41;;;25.88;24.82
63321;BME280;49449;48.800;9.534;2023-07-16T12:30:32;98605.72;;;26.02;25.16
63321;BME280;49449;48.800;9.534;2023-07-16T12:33:00;98615.41;;;26.03;25.12
63321;BME280;49449;48.800;9.534;2023-07-16T12:35:30;98613.63;;;26.08;24.63
63321;BME280;49449;48.800;9.534;2023-07-16T12:37:58;98610.59;;;25.88;24.64
63321;BME280;49449;48.800;9.534;2023-07-16T12:40:28;98593.28;;;26.01;24.37
63321;BME280;49449;48.800;9.534;2023-07-16T12:43:07;98595.59;;;26.12;24.34
63321;BME280;49449;48.800;9.534;2023-07-16T12:45:35;98585.72;;;26.37;24.19
63321;BME280;49449;48.800;9.534;2023-07-16T12:48:03;98595.81;;;26.06;24.29
63321;BME280;49449;48.800;9.534;2023-07-16T12:50:31;98598.22;;;25.78;24.44
63321;BME280;49449;48.800;9.534;2023-07-16T12:52:59;98603.22;;;25.67;24.46
63321;BME280;49449;48.800;9.534;2023-07-16T12:55:26;98601.78;;;25.91;25.18
63321;BME280;49449;48.800;9.534;2023-07-16T12:57:54;98596.78;;;25.81;24.37
63321;BME280;49449;48.800;9.534;2023-07-16T13:00:24;98598.09;;;25.75;24.47
63321;BME280;49449;48.800;9.534;2023-07-16T13:02:51;98599.66;;;25.46;25.56
63321;BME280;49449;48.800;9.534;2023-07-16T13:05:19;98602.78;;;25.57;25.20
63321;BME280;49449;48.800;9.534;2023-07-16T13:07:47;98604.19;;;25.93;25.26
63321;BME280;49449;48.800;9.534;2023-07-16T13:10:15;98605.31;;;26.13;25.39